Time;durP1;ratioP1;P1;durP2;ratioP2;P2;SDS_P1;SDS_P2;PMS_P1;PMS_P2;Temp;Humidity;BMP_temperature;BMP_pressure;BME280_temperature;BME280_humidity;BME280_pressure;Samples;Min_cycle;Max_cycle;Signal;HPM_P1;HPM_P2
2023/04/15 00:01:21;;;;;;;6.32;4.20;;;8.70;99.90;;;;;;5000529;28;20048;-68
2023/04/15 00:03:49;;;;;;;9.75;4.72;;;8.80;99.90;;;;;;5016213;28;20545;-69
2023/04/15 00:06:15;;;;;;;6.28;4.30;;;8.80;99.90;;;;;;5017009;28;20038;-70
2023/04/15 00:08:41;;;;;;;5.82;4.07;;;8.80;99.90;;;;;;5017030;28;20041;-68
2023/04/15 00:11:06;;;;;;;6.43;4.25;;;8.80;99.90;;;;;;4999032;28;20065;-69
2023/04/15 00:13:35;;;;;;;6.10;4.53;;;8.70;99.90;;;;;;4996587;28;20128;-68
2023/04/15 00:16:01;;;;;;;6.22;4.13;;;8.70;99.90;;;;;;5016684;28;20057;-69
2023/04/15 00:18:28;;;;;;;8.13;4.65;;;8.70;99.90;;;;;;5015753;28;20101;-67
2023/04/15 00:20:54;;;;;;;4.22;3.45;;;8.70;99.90;;;;;;5032338;28;20099;-68
2023/04/15 00:23:20;;;;;;;6.32;4.25;;;8.60;99.90;;;;;;5018577;28;20461;-68
2023/04/15 00:25:46;;;;;;;6.68;4.40;;;8.70;99.90;;;;;;5016666;28;20379;-69
2023/04/15 00:28:11;;;;;;;5.20;3.88;;;8.60;99.90;;;;;;5012497;28;20033;-69
2023/04/15 00:30:37;;;;;;;7.82;4.25;;;8.50;99.90;;;;;;5015040;28;20421;-68
2023/04/15 00:33:03;;;;;;;7.25;3.60;;;8.50;99.90;;;;;;5015381;28;20042;-69
2023/04/15 00:35:31;;;;;;;6.75;4.28;;;8.50;99.90;;;;;;5016721;28;20026;-68
2023/04/15 00:37:57;;;;;;;5.70;4.10;;;8.50;99.90;;;;;;5017604;28;20040;-68
2023/04/15 00:40:23;;;;;;;6.07;4.35;;;8.50;99.90;;;;;;5017760;28;20026;-68
2023/04/15 00:42:49;;;;;;;5.25;3.97;;;8.50;99.90;;;;;;5011384;28;20119;-68
2023/04/15 00:45:15;;;;;;;6.05;3.72;;;8.60;99.90;;;;;;5014530;28;20496;-70
2023/04/15 00:47:42;;;;;;;6.70;4.28;;;8.60;99.90;;;;;;5018861;28;20508;-69
2023/04/15 00:50:09;;;;;;;7.45;4.28;;;8.60;99.90;;;;;;5015461;28;20030;-71
2023/04/15 00:52:36;;;;;;;7.60;4.28;;;8.60;99.90;;;;;;5015191;28;20117;-68
2023/04/15 00:55:03;;;;;;;4.85;4.07;;;8.60;99.90;;;;;;5013449;28;20089;-68
2023/04/15 00:57:29;;;;;;;5.10;3.88;;;8.60;99.90;;;;;;5014030;28;20553;-67
2023/04/15 00:59:55;;;;;;;6.47;4.35;;;8.50;99.90;;;;;;5010736;28;20029;-67
2023/04/15 01:02:22;;;;;;;5.60;3.85;;;8.50;99.90;;;;;;5015632;28;20037;-69
2023/04/15 01:04:48;;;;;;;7.38;4.10;;;8.60;99.90;;;;;;5004425;28;20018;-70
2023/04/15 01:07:15;;;;;;;6.07;4.00;;;8.60;99.90;;;;;;5014101;28;20049;-67
2023/04/15 01:09:41;;;;;;;6.93;4.30;;;8.60;99.90;;;;;;5017864;28;20480;-69
2023/04/15 01:12:10;;;;;;;7.25;4.53;;;8.60;99.90;;;;;;5012785;28;20099;-67
2023/04/15 01:14:36;;;;;;;6.25;4.25;;;8.60;99.90;;;;;;5018684;28;20041;-67
2023/04/15 01:17:02;;;;;;;6.35;3.97;;;8.50;99.90;;;;;;5020060;28;20025;-68
2023/04/15 01:19:28;;;;;;;6.78;4.30;;;8.50;99.90;;;;;;5019016;28;20053;-70
2023/04/15 01:21:54;;;;;;;7.15;4.90;;;8.50;99.90;;;;;;5019835;28;20030;-69
2023/04/15 01:24:20;;;;;;;8.32;5.50;;;8.40;99.90;;;;;;5019073;28;20037;-68
2023/04/15 01:26:47;;;;;;;7.68;5.13;;;8.40;99.90;;;;;;5018546;28;20026;-69
2023/04/15 01:29:14;;;;;;;9.38;4.80;;;8.30;99.90;;;;;;5020453;28;20045;-69
2023/04/15 01:31:40;;;;;;;9.05;5.13;;;8.40;99.90;;;;;;5019571;28;20025;-67
2023/04/15 01:34:05;;;;;;;7.70;5.30;;;8.40;99.90;;;;;;5020839;28;20096;-68
2023/04/15 01:36:32;;;;;;;6.72;5.53;;;8.40;99.90;;;;;;5018292;28;20104;-67
2023/04/15 01:38:57;;;;;;;7.95;5.50;;;8.30;99.90;;;;;;5017424;28;20038;-69
2023/04/15 01:41:27;;;;;;;8.77;5.80;;;8.30;99.90;;;;;;5017419;28;20017;-67
2023/04/15 01:43:53;;;;;;;9.55;5.78;;;8.30;99.90;;;;;;5019323;28;20025;-69
2023/04/15 01:46:19;;;;;;;9.10;6.03;;;8.30;99.90;;;;;;5017938;28;20029;-69
2023/04/15 01:48:45;;;;;;;11.88;6.18;;;8.30;99.90;;;;;;5018701;28;20030;-67
2023/04/15 01:51:11;;;;;;;7.82;5.00;;;8.30;99.90;;;;;;5020792;28;20038;-68
2023/04/15 01:53:37;;;;;;;8.98;5.80;;;8.40;99.90;;;;;;5018756;28;20087;-69
2023/04/15 01:56:03;;;;;;;7.40;5.45;;;8.40;99.90;;;;;;5016959;28;20068;-69
2023/04/15 01:58:29;;;;;;;8.15;6.00;;;8.40;99.90;;;;;;5020410;28;20639;-68
2023/04/15 02:00:55;;;;;;;7.38;5.22;;;8.40;99.90;;;;;;5017494;28;20014;-68
2023/04/15 02:03:21;;;;;;;9.00;5.63;;;8.30;99.90;;;;;;5019796;28;20033;-68
2023/04/15 02:05:46;;;;;;;8.95;5.57;;;8.40;99.90;;;;;;5013504;28;20441;-68
2023/04/15 02:08:12;;;;;;;10.30;6.07;;;8.40;99.90;;;;;;5019783;28;20065;-70
2023/04/15 02:10:38;;;;;;;9.05;5.57;;;8.40;99.90;;;;;;5015924;28;20045;-68
2023/04/15 02:13:04;;;;;;;7.85;5.63;;;8.40;99.90;;;;;;5018110;28;20029;-68
2023/04/15 02:15:32;;;;;;;7.32;5.13;;;8.40;99.90;;;;;;5019561;28;20589;-67
2023/04/15 02:17:59;;;;;;;8.30;5.18;;;8.30;99.90;;;;;;5022011;28;20096;-69
2023/04/15 02:20:25;;;;;;;8.35;5.72;;;8.40;99.90;;;;;;5000196;28;20026;-69
2023/04/15 02:22:51;;;;;;;7.50;5.50;;;8.40;99.90;;;;;;5018476;28;20101;-69
2023/04/15 02:25:17;;;;;;;8.13;5.95;;;8.40;99.90;;;;;;5014953;28;20036;-70
2023/04/15 02:27:43;;;;;;;9.57;6.35;;;8.30;99.90;;;;;;5051049;28;20033;-70
2023/04/15 02:30:09;;;;;;;8.20;6.28;;;8.30;99.90;;;;;;5017389;28;20117;-69
2023/04/15 02:32:36;;;;;;;9.18;6.20;;;8.40;99.90;;;;;;5018659;28;20042;-69
2023/04/15 02:35:06;;;;;;;11.05;7.00;;;8.40;99.90;;;;;;5019188;28;20505;-69
2023/04/15 02:37:39;;;;;;;9.25;6.05;;;8.30;99.90;;;;;;5020966;28;20034;-68
2023/04/15 02:40:06;;;;;;;9.88;6.78;;;8.40;99.90;;;;;;5016157;28;20088;-67
2023/04/15 02:42:32;;;;;;;9.38;6.55;;;8.40;99.90;;;;;;5046563;28;20517;-69
2023/04/15 02:44:58;;;;;;;9.55;6.50;;;8.40;99.90;;;;;;5017125;28;20037;-69
2023/04/15 02:47:24;;;;;;;8.80;6.20;;;8.40;99.90;;;;;;5019419;28;20028;-68
2023/04/15 02:49:49;;;;;;;9.98;6.78;;;8.50;99.90;;;;;;5015351;28;20088;-69
2023/04/15 02:52:15;;;;;;;9.05;6.22;;;8.50;99.90;;;;;;5016803;28;20029;-69
2023/04/15 02:54:41;;;;;;;8.57;5.90;;;8.50;99.90;;;;;;5016975;28;20036;-68
2023/04/15 02:57:07;;;;;;;9.60;6.75;;;8.50;99.90;;;;;;5014471;28;20037;-68
2023/04/15 02:59:32;;;;;;;11.73;6.57;;;8.50;99.90;;;;;;5015118;28;20033;-68
2023/04/15 03:01:59;;;;;;;10.13;7.00;;;8.50;99.90;;;;;;5019866;28;20037;-70
2023/04/15 03:04:25;;;;;;;9.90;7.03;;;8.50;99.90;;;;;;5015840;28;20038;-69
2023/04/15 03:06:52;;;;;;;10.15;6.72;;;8.50;99.90;;;;;;5033668;28;20032;-68
2023/04/15 03:09:17;;;;;;;11.73;7.25;;;8.50;99.90;;;;;;5018404;28;20148;-68
2023/04/15 03:11:43;;;;;;;11.55;7.65;;;8.50;99.90;;;;;;5016007;28;20106;-70
2023/04/15 03:14:09;;;;;;;10.80;6.88;;;8.50;99.90;;;;;;5018396;28;20057;-69
2023/04/15 03:16:34;;;;;;;9.98;7.03;;;8.50;99.90;;;;;;5014863;28;20104;-70
2023/04/15 03:19:00;;;;;;;11.40;7.65;;;8.50;99.90;;;;;;5018514;28;20509;-68
2023/04/15 03:21:26;;;;;;;11.75;7.50;;;8.50;99.90;;;;;;5017029;28;20100;-69
2023/04/15 03:23:52;;;;;;;13.55;7.72;;;8.50;99.90;;;;;;5016693;28;20038;-70
2023/04/15 03:26:30;;;;;;;10.88;7.38;;;8.40;99.90;;;;;;5015318;28;20022;-69
2023/04/15 03:28:57;;;;;;;12.90;7.93;;;8.40;99.90;;;;;;5015576;28;20494;-68
2023/04/15 03:31:23;;;;;;;12.77;7.78;;;8.40;99.90;;;;;;5019236;28;20041;-68
2023/04/15 03:33:49;;;;;;;12.27;8.20;;;8.40;99.90;;;;;;5016565;28;20476;-69
2023/04/15 03:36:15;;;;;;;13.13;8.43;;;8.50;99.90;;;;;;5017361;28;20041;-69
2023/04/15 03:38:41;;;;;;;11.82;7.75;;;8.50;99.90;;;;;;5049038;28;20052;-69
2023/04/15 03:41:08;;;;;;;13.10;8.00;;;8.40;99.90;;;;;;5016832;28;20026;-69
2023/04/15 03:43:34;;;;;;;13.68;9.00;;;8.40;99.90;;;;;;5018973;28;20037;-69
2023/04/15 03:46:00;;;;;;;12.35;7.90;;;8.50;99.90;;;;;;5017414;28;20112;-70
2023/04/15 03:48:25;;;;;;;15.38;9.13;;;8.50;99.90;;;;;;5017465;28;20025;-68
2023/04/15 03:50:51;;;;;;;14.18;8.15;;;8.50;99.90;;;;;;5012344;28;20033;-68
2023/04/15 03:53:17;;;;;;;14.35;9.43;;;8.50;99.90;;;;;;5017806;28;20442;-69
2023/04/15 03:55:43;;;;;;;14.68;9.52;;;8.40;99.90;;;;;;5013227;28;20042;-68
2023/04/15 03:58:11;;;;;;;14.18;8.85;;;8.40;99.90;;;;;;5016559;28;20033;-68
2023/04/15 04:00:38;;;;;;;13.10;9.10;;;8.50;99.90;;;;;;5015772;28;20033;-69
2023/04/15 04:03:03;;;;;;;15.27;9.63;;;8.50;99.90;;;;;;5018849;28;20026;-69
2023/04/15 04:05:29;;;;;;;15.73;9.70;;;8.50;99.90;;;;;;5014915;28;20040;-68
2023/04/15 04:07:55;;;;;;;17.02;10.63;;;8.40;99.90;;;;;;5018070;28;20029;-69
2023/04/15 04:10:21;;;;;;;16.88;10.32;;;8.40;99.90;;;;;;5011962;28;20030;-69
2023/04/15 04:12:46;;;;;;;16.85;10.38;;;8.40;99.90;;;;;;5014996;28;20414;-68
2023/04/15 04:15:12;;;;;;;17.60;11.23;;;8.40;99.90;;;;;;5012017;28;20037;-68
2023/04/15 04:17:38;;;;;;;20.27;11.68;;;8.40;99.90;;;;;;5015884;28;20034;-69
2023/04/15 04:20:04;;;;;;;16.90;10.30;;;8.40;99.90;;;;;;5015454;28;20026;-69
2023/04/15 04:22:30;;;;;;;17.98;11.15;;;8.40;99.90;;;;;;5016786;28;20371;-69
2023/04/15 04:24:58;;;;;;;22.42;12.80;;;8.40;99.90;;;;;;5013259;28;20021;-69
2023/04/15 04:27:24;;;;;;;18.75;10.98;;;8.40;99.90;;;;;;5049283;28;20374;-67
2023/04/15 04:29:50;;;;;;;20.35;10.88;;;8.40;99.90;;;;;;5017974;28;20061;-68
2023/04/15 04:32:16;;;;;;;17.90;11.27;;;8.40;99.90;;;;;;5016808;28;20072;-67
2023/04/15 04:34:42;;;;;;;19.80;12.27;;;8.40;99.90;;;;;;5014299;28;20030;-68
2023/04/15 04:37:07;;;;;;;21.92;13.50;;;8.40;99.90;;;;;;5015631;28;20034;-68
2023/04/15 04:39:33;;;;;;;23.80;13.05;;;8.40;99.90;;;;;;5014220;28;20026;-69
2023/04/15 04:41:59;;;;;;;24.65;13.98;;;8.40;99.90;;;;;;5023754;28;20460;-68
2023/04/15 04:44:24;;;;;;;24.10;13.82;;;8.40;99.90;;;;;;5018905;28;20041;-68
2023/04/15 04:46:50;;;;;;;25.00;14.55;;;8.40;99.90;;;;;;5028097;28;20268;-70
2023/04/15 04:49:16;;;;;;;24.73;14.65;;;8.40;99.90;;;;;;5033942;28;20025;-69
2023/04/15 04:51:41;;;;;;;22.17;13.60;;;8.40;99.90;;;;;;5022264;28;20876;-68
2023/04/15 04:54:07;;;;;;;24.00;15.27;;;8.40;99.90;;;;;;5015459;28;20625;-70
2023/04/15 04:56:33;;;;;;;24.23;15.10;;;8.40;99.90;;;;;;5015250;28;20512;-68
2023/04/15 04:58:59;;;;;;;26.63;14.85;;;8.40;99.90;;;;;;5014872;28;20057;-70
2023/04/15 05:01:26;;;;;;;26.63;16.08;;;8.40;99.90;;;;;;5017002;28;20060;-70
2023/04/15 05:03:53;;;;;;;27.75;16.90;;;8.50;99.90;;;;;;5014453;28;20033;-70
2023/04/15 05:06:18;;;;;;;29.67;16.88;;;8.50;99.90;;;;;;5015981;28;20831;-69
2023/04/15 05:08:45;;;;;;;15.52;8.65;;;8.50;99.90;;;;;;5014380;28;20029;-70
2023/04/15 05:11:11;;;;;;;28.67;16.80;;;8.70;99.90;;;;;;5015864;28;20091;-68
2023/04/15 05:13:37;;;;;;;30.10;17.08;;;8.80;99.90;;;;;;5014611;28;20498;-69
2023/04/15 05:16:07;;;;;;;32.63;18.17;;;8.60;99.90;;;;;;5010735;28;20516;-69
2023/04/15 05:18:33;;;;;;;26.88;16.00;;;8.60;99.90;;;;;;5015207;28;20029;-69
2023/04/15 05:20:59;;;;;;;29.85;17.13;;;8.50;99.90;;;;;;5014914;28;20030;-69
2023/04/15 05:23:25;;;;;;;29.88;17.42;;;8.60;99.90;;;;;;5015353;28;20032;-68
2023/04/15 05:25:50;;;;;;;31.98;17.20;;;8.60;99.90;;;;;;5012727;28;20022;-70
2023/04/15 05:28:16;;;;;;;37.85;19.30;;;8.60;99.90;;;;;;5015131;28;20033;-70
2023/04/15 05:30:42;;;;;;;34.63;18.95;;;8.60;99.90;;;;;;5015136;28;20049;-68
2023/04/15 05:33:08;;;;;;;33.10;19.27;;;8.60;99.90;;;;;;5013246;28;20072;-67
2023/04/15 05:35:33;;;;;;;36.08;19.58;;;8.60;99.90;;;;;;5016842;28;20038;-68
2023/04/15 05:37:59;;;;;;;35.38;19.63;;;8.50;99.90;;;;;;5015529;28;20385;-67
2023/04/15 05:40:26;;;;;;;38.17;20.80;;;8.60;99.90;;;;;;5013636;28;20022;-67
2023/04/15 05:42:51;;;;;;;35.50;18.98;;;8.60;99.90;;;;;;5017051;28;20022;-67
2023/04/15 05:45:19;;;;;;;38.88;21.23;;;8.50;99.90;;;;;;5017073;28;20116;-68
2023/04/15 05:47:45;;;;;;;38.42;21.05;;;8.50;99.90;;;;;;5019315;28;20121;-68
2023/04/15 05:50:11;;;;;;;36.05;20.02;;;8.50;99.90;;;;;;5021827;28;20118;-69
2023/04/15 05:52:37;;;;;;;34.55;19.25;;;8.50;99.90;;;;;;5022631;28;20436;-67
2023/04/15 05:55:02;;;;;;;37.88;20.98;;;8.50;99.90;;;;;;5017563;28;20034;-67
2023/04/15 05:57:28;;;;;;;37.22;21.70;;;8.50;99.90;;;;;;5003236;28;20441;-69
2023/04/15 05:59:56;;;;;;;37.70;21.50;;;8.60;99.90;;;;;;5020519;28;20026;-68
2023/04/15 06:02:21;;;;;;;39.60;22.42;;;8.60;99.90;;;;;;5013948;28;20496;-69
2023/04/15 06:04:47;;;;;;;37.45;21.13;;;8.60;99.90;;;;;;5016119;28;20101;-67
2023/04/15 06:07:13;;;;;;;37.13;20.67;;;8.60;99.90;;;;;;5019550;28;20026;-67
2023/04/15 06:09:39;;;;;;;37.33;21.38;;;8.50;99.90;;;;;;5018926;28;20409;-67
2023/04/15 06:12:05;;;;;;;37.05;21.83;;;8.50;99.90;;;;;;5017279;28;20497;-68
2023/04/15 06:14:31;;;;;;;37.05;21.67;;;8.50;99.90;;;;;;5014338;28;20811;-68
2023/04/15 06:16:57;;;;;;;42.13;21.45;;;8.60;99.90;;;;;;5017669;28;20034;-68
2023/04/15 06:19:23;;;;;;;39.10;23.48;;;8.50;99.90;;;;;;5018229;28;20113;-67
2023/04/15 06:21:49;;;;;;;40.80;23.55;;;8.50;99.90;;;;;;5018068;28;20022;-68
2023/04/15 06:24:15;;;;;;;38.65;23.27;;;8.50;99.90;;;;;;5018072;28;20033;-69
2023/04/15 06:26:40;;;;;;;41.45;22.80;;;8.50;99.90;;;;;;5018036;28;20453;-70
2023/04/15 06:29:06;;;;;;;38.38;20.80;;;8.60;99.90;;;;;;5021790;28;20119;-69
2023/04/15 06:31:31;;;;;;;42.63;24.10;;;8.60;99.90;;;;;;5014936;28;20033;-68
2023/04/15 06:33:57;;;;;;;44.42;25.75;;;8.60;99.90;;;;;;5018944;28;20029;-68
2023/04/15 06:36:23;;;;;;;43.42;24.58;;;8.60;99.90;;;;;;5012909;28;20033;-68
2023/04/15 06:38:49;;;;;;;45.03;26.15;;;8.50;99.90;;;;;;5017269;28;20094;-69
2023/04/15 06:41:15;;;;;;;53.15;26.88;;;8.60;99.90;;;;;;5013948;28;20482;-68
2023/04/15 06:43:41;;;;;;;49.67;27.45;;;8.50;99.90;;;;;;5020299;28;20029;-67
2023/04/15 06:46:06;;;;;;;48.92;26.17;;;8.50;99.90;;;;;;5015234;28;20131;-68
2023/04/15 06:48:32;;;;;;;50.15;27.20;;;8.60;99.90;;;;;;5017659;28;20105;-68
2023/04/15 06:50:58;;;;;;;50.08;28.00;;;8.60;99.90;;;;;;5017123;28;20041;-69
2023/04/15 06:53:26;;;;;;;54.33;29.08;;;8.60;99.90;;;;;;5020631;28;20033;-68
2023/04/15 06:55:54;;;;;;;55.72;29.52;;;8.60;99.90;;;;;;5016518;28;20029;-69
2023/04/15 06:58:20;;;;;;;48.67;27.25;;;8.70;99.90;;;;;;5015587;28;20036;-69
2023/04/15 07:00:46;;;;;;;47.72;28.50;;;8.70;99.90;;;;;;5000169;28;20030;-70
2023/04/15 07:03:12;;;;;;;52.63;28.95;;;8.70;99.90;;;;;;5015612;28;20040;-68
2023/04/15 07:05:38;;;;;;;59.70;31.48;;;8.80;99.90;;;;;;5014508;28;20439;-68
2023/04/15 07:08:05;;;;;;;47.47;28.38;;;8.70;99.90;;;;;;5018157;28;20493;-68
2023/04/15 07:10:31;;;;;;;60.03;31.02;;;8.80;99.90;;;;;;5018799;28;20117;-69
2023/04/15 07:12:57;;;;;;;56.13;31.92;;;8.80;99.90;;;;;;5016394;28;20025;-69
2023/04/15 07:15:23;;;;;;;58.42;32.30;;;8.80;99.90;;;;;;5015787;28;20048;-68
2023/04/15 07:17:48;;;;;;;61.88;33.67;;;8.70;99.90;;;;;;5018518;28;20108;-70
2023/04/15 07:20:15;;;;;;;58.70;32.80;;;8.70;99.90;;;;;;5014829;28;20046;-68
2023/04/15 07:22:41;;;;;;;59.38;33.58;;;8.80;99.90;;;;;;5018460;28;20037;-68
2023/04/15 07:25:07;;;;;;;58.78;33.53;;;8.80;99.90;;;;;;5016717;28;20124;-68
2023/04/15 07:27:33;;;;;;;55.45;31.55;;;8.80;99.90;;;;;;5018042;28;20067;-68
2023/04/15 07:29:59;;;;;;;60.50;33.55;;;8.80;99.90;;;;;;5015830;28;20025;-69
2023/04/15 07:32:25;;;;;;;60.92;33.22;;;8.90;99.90;;;;;;5016586;28;20133;-68
2023/04/15 07:34:51;;;;;;;61.88;35.05;;;8.90;99.90;;;;;;5016345;28;20640;-70
2023/04/15 07:37:17;;;;;;;64.25;35.00;;;8.90;99.90;;;;;;5017301;28;20049;-68
2023/04/15 07:39:43;;;;;;;56.50;32.88;;;8.90;99.90;;;;;;5014276;28;20060;-68
2023/04/15 07:42:09;;;;;;;61.97;34.30;;;9.00;99.90;;;;;;5014645;28;20029;-70
2023/04/15 07:44:35;;;;;;;58.97;32.20;;;8.90;99.90;;;;;;5017392;28;20029;-71
2023/04/15 07:47:02;;;;;;;59.38;32.67;;;8.90;99.90;;;;;;5017598;28;20045;-70
2023/04/15 07:49:28;;;;;;;57.85;31.85;;;8.90;99.90;;;;;;5018140;28;20029;-70
2023/04/15 07:51:56;;;;;;;65.85;34.47;;;9.00;99.90;;;;;;5018069;28;20021;-70
2023/04/15 07:54:22;;;;;;;62.13;31.58;;;9.00;99.90;;;;;;5017096;28;20026;-68
2023/04/15 07:56:47;;;;;;;56.13;32.80;;;8.90;99.90;;;;;;5009995;28;20037;-69
2023/04/15 07:59:16;;;;;;;59.58;30.75;;;8.90;99.90;;;;;;5015499;28;20040;-70
2023/04/15 08:01:42;;;;;;;63.83;33.85;;;9.00;99.90;;;;;;5011453;28;20112;-67
2023/04/15 08:04:09;;;;;;;60.10;33.35;;;9.00;99.90;;;;;;5011857;28;20262;-70
2023/04/15 08:06:35;;;;;;;58.53;33.92;;;9.00;99.90;;;;;;5011301;28;20096;-68
2023/04/15 08:09:01;;;;;;;59.70;33.58;;;9.10;99.90;;;;;;5012368;28;20056;-69
2023/04/15 08:11:27;;;;;;;59.88;32.33;;;9.10;99.90;;;;;;5015936;28;20037;-68
2023/04/15 08:13:53;;;;;;;53.92;32.03;;;9.10;99.90;;;;;;5016836;28;20030;-69
2023/04/15 08:16:19;;;;;;;60.85;33.70;;;9.10;99.90;;;;;;5015908;28;20041;-68
2023/04/15 08:18:49;;;;;;;62.05;34.00;;;9.20;99.90;;;;;;5017593;28;20033;-68
2023/04/15 08:21:16;;;;;;;65.93;35.33;;;9.20;99.90;;;;;;5013844;28;20109;-67
2023/04/15 08:23:42;;;;;;;61.53;32.85;;;9.20;99.90;;;;;;5017411;28;20049;-68
2023/04/15 08:26:08;;;;;;;64.28;32.78;;;9.10;99.90;;;;;;5008651;28;20542;-67
2023/04/15 08:28:36;;;;;;;61.97;33.88;;;9.10;99.90;;;;;;5013848;28;20474;-70
2023/04/15 08:31:02;;;;;;;68.10;35.50;;;9.10;99.90;;;;;;5017389;28;20036;-69
2023/04/15 08:33:28;;;;;;;58.05;32.38;;;9.10;99.90;;;;;;5047036;28;20034;-69
2023/04/15 08:35:54;;;;;;;64.13;33.45;;;9.40;99.90;;;;;;5015482;28;20519;-70
2023/04/15 08:38:19;;;;;;;56.83;32.10;;;9.40;99.90;;;;;;5013040;28;20117;-70
2023/04/15 08:40:45;;;;;;;60.83;34.45;;;9.30;99.90;;;;;;5009513;28;20049;-69
2023/04/15 08:43:21;;;;;;;54.60;32.83;;;9.30;99.90;;;;;;5010274;28;20037;-68
2023/04/15 08:45:50;;;;;;;53.40;32.22;;;9.30;99.90;;;;;;4996763;28;20026;-70
2023/04/15 08:48:16;;;;;;;57.15;33.00;;;9.30;99.90;;;;;;5019094;28;20378;-70
2023/04/15 08:50:42;;;;;;;56.35;32.45;;;9.30;99.90;;;;;;5013508;28;20049;-69
2023/04/15 08:53:09;;;;;;;53.95;32.17;;;9.40;99.90;;;;;;5015472;28;20029;-68
2023/04/15 08:55:38;;;;;;;56.33;32.17;;;9.40;99.90;;;;;;5015136;28;20078;-69
2023/04/15 08:58:04;;;;;;;58.65;32.58;;;9.50;99.90;;;;;;5015065;28;20038;-68
2023/04/15 09:00:32;;;;;;;55.22;31.35;;;9.50;99.90;;;;;;5012795;28;20018;-67
2023/04/15 09:02:59;;;;;;;54.30;30.30;;;9.50;99.90;;;;;;5011982;28;20026;-67
2023/04/15 09:05:25;;;;;;;56.47;31.02;;;9.60;99.90;;;;;;5016045;28;20018;-67
2023/04/15 09:07:51;;;;;;;54.00;31.38;;;9.70;99.90;;;;;;5014360;28;20025;-67
2023/04/15 09:10:16;;;;;;;55.35;31.17;;;9.70;99.90;;;;;;5013934;28;20045;-71
2023/04/15 09:12:43;;;;;;;59.85;33.42;;;9.70;99.90;;;;;;5007749;28;20044;-68
2023/04/15 09:15:11;;;;;;;56.35;31.90;;;9.70;99.90;;;;;;5012587;28;20435;-67
2023/04/15 09:17:42;;;;;;;58.55;32.53;;;9.70;99.90;;;;;;5015207;28;23786;-68
2023/04/15 09:20:09;;;;;;;;;;;9.70;99.90;;;;;;5016832;28;20034;-68
2023/04/15 09:22:36;;;;;;;53.75;30.63;;;9.70;99.90;;;;;;5019750;28;19991;-70
2023/04/15 09:25:02;;;;;;;57.63;32.80;;;9.70;99.90;;;;;;5002707;28;20457;-68
2023/04/15 09:27:28;;;;;;;55.47;30.42;;;9.70;99.90;;;;;;5014765;28;20030;-68
2023/04/15 09:29:54;;;;;;;56.10;33.03;;;9.80;99.90;;;;;;5014771;28;20510;-68
2023/04/15 09:32:22;;;;;;;57.50;31.88;;;9.80;99.90;;;;;;5009880;28;20021;-68
2023/04/15 09:34:48;;;;;;;56.90;31.65;;;9.90;99.90;;;;;;5012596;28;20033;-69
2023/04/15 09:37:17;;;;;;;55.92;31.50;;;10.00;99.90;;;;;;5016890;28;20108;-69
2023/04/15 09:39:47;;;;;;;58.28;33.22;;;10.00;99.90;;;;;;4995324;28;20029;-69
2023/04/15 09:42:12;;;;;;;57.60;32.92;;;10.00;99.90;;;;;;5017302;28;20064;-70
2023/04/15 09:44:38;;;;;;;58.10;32.60;;;10.00;99.90;;;;;;5012059;28;20053;-69
2023/04/15 09:47:05;;;;;;;57.08;31.02;;;10.10;99.90;;;;;;5020643;28;20030;-70
2023/04/15 09:49:31;;;;;;;54.70;30.60;;;10.20;99.90;;;;;;5014467;28;20480;-69
2023/04/15 09:52:02;;;;;;;52.42;30.40;;;10.30;99.90;;;;;;5018353;28;20029;-69
2023/04/15 09:54:38;;;;;;;48.47;29.13;;;10.30;99.90;;;;;;5019407;28;20033;-71
2023/04/15 09:57:09;;;;;;;52.22;31.15;;;10.40;99.90;;;;;;5021105;28;20030;-71
2023/04/15 09:59:35;;;;;;;55.30;30.92;;;10.50;99.90;;;;;;5022388;28;20022;-71
2023/04/15 10:02:05;;;;;;;55.03;31.13;;;10.70;99.90;;;;;;5018853;28;20025;-69
2023/04/15 10:04:34;;;;;;;52.67;31.77;;;10.70;99.90;;;;;;5016762;28;20029;-68
2023/04/15 10:07:02;;;;;;;47.97;29.42;;;10.80;99.90;;;;;;5016381;28;20398;-69
2023/04/15 10:09:29;;;;;;;48.85;31.05;;;11.00;99.90;;;;;;5018975;28;20048;-70
2023/04/15 10:11:55;;;;;;;48.28;28.75;;;11.00;99.90;;;;;;5020800;28;20026;-68
2023/04/15 10:14:22;;;;;;;48.28;27.60;;;11.00;99.90;;;;;;5014722;28;21187;-70
2023/04/15 10:16:48;;;;;;;51.00;30.90;;;11.20;99.90;;;;;;5018924;28;20382;-69
2023/04/15 10:19:17;;;;;;;52.10;29.63;;;11.10;99.90;;;;;;5019250;28;20037;-68
2023/04/15 10:21:44;;;;;;;46.47;28.13;;;11.20;99.90;;;;;;5017961;28;20065;-69
2023/04/15 10:24:10;;;;;;;50.33;28.13;;;11.00;99.90;;;;;;5017738;28;20099;-69
2023/04/15 10:26:37;;;;;;;44.90;28.42;;;11.00;99.90;;;;;;5018327;28;20026;-70
2023/04/15 10:29:03;;;;;;;45.08;27.65;;;11.00;99.90;;;;;;5016682;28;20026;-70
2023/04/15 10:31:29;;;;;;;42.50;27.20;;;11.30;99.90;;;;;;5017939;28;20171;-68
2023/04/15 10:33:56;;;;;;;39.97;27.88;;;11.60;99.90;;;;;;5016193;28;20083;-67
2023/04/15 10:36:21;;;;;;;39.05;25.58;;;11.80;99.90;;;;;;5048515;28;20450;-70
2023/04/15 10:38:47;;;;;;;43.40;26.60;;;11.80;99.90;;;;;;5018532;28;20033;-68
2023/04/15 10:41:30;;;;;;;39.53;26.00;;;12.00;99.90;;;;;;5018439;28;20049;-68
2023/04/15 10:43:59;;;;;;;39.13;26.48;;;12.00;99.90;;;;;;5016592;28;20117;-68
2023/04/15 10:46:37;;;;;;;36.65;25.42;;;12.10;99.90;;;;;;5016237;28;20037;-68
2023/04/15 10:49:09;;;;;;;40.63;24.10;;;12.10;99.90;;;;;;5017487;28;20022;-68
2023/04/15 10:51:40;;;;;;;36.88;24.20;;;12.10;99.90;;;;;;5020029;28;20178;-68
2023/04/15 10:54:12;;;;;;;37.20;23.20;;;12.10;99.90;;;;;;5020646;28;20458;-68
2023/04/15 10:56:43;;;;;;;36.92;23.63;;;12.20;99.90;;;;;;4999848;28;20500;-67
2023/04/15 10:59:10;;;;;;;35.53;24.10;;;12.20;99.90;;;;;;5017538;28;20029;-69
2023/04/15 11:01:56;;;;;;;33.83;21.77;;;12.30;99.90;;;;;;5018409;28;20076;-67
2023/04/15 11:04:50;;;;;;;29.38;20.25;;;12.40;99.90;;;;;;5017519;28;20029;-68
2023/04/15 11:07:38;;;;;;;27.55;18.40;;;12.50;99.90;;;;;;5021044;28;20204;-68
2023/04/15 11:10:32;;;;;;;22.83;16.02;;;12.80;99.90;;;;;;5017561;28;20087;-67
2023/04/15 11:12:59;;;;;;;20.33;14.15;;;12.90;99.90;;;;;;4998684;28;20026;-67
2023/04/15 11:15:37;;;;;;;21.13;15.00;;;13.20;99.90;;;;;;5017821;28;20446;-68
2023/04/15 11:18:16;;;;;;;20.85;14.05;;;13.60;99.90;;;;;;5015532;28;20029;-68
2023/04/15 11:20:46;;;;;;;18.77;13.48;;;14.20;99.90;;;;;;5018794;28;20065;-68
2023/04/15 11:23:13;;;;;;;15.90;12.52;;;14.00;99.90;;;;;;5018047;28;20030;-69
2023/04/15 11:25:39;;;;;;;16.42;12.68;;;13.60;99.90;;;;;;5015049;28;20058;-70
2023/04/15 11:28:06;;;;;;;19.92;12.63;;;13.40;99.90;;;;;;5017288;28;20022;-68
2023/04/15 11:30:36;;;;;;;17.17;12.27;;;13.20;99.90;;;;;;5015222;28;20037;-68
2023/04/15 11:33:07;;;;;;;17.15;12.38;;;13.00;99.90;;;;;;5015056;28;20536;-71
2023/04/15 11:35:34;;;;;;;16.30;12.32;;;12.70;99.90;;;;;;5004153;28;20034;-70
2023/04/15 11:38:07;;;;;;;16.98;12.32;;;12.70;99.90;;;;;;5007367;28;20029;-68
2023/04/15 11:40:34;;;;;;;15.20;11.68;;;12.70;99.90;;;;;;5016812;28;20079;-68
2023/04/15 11:43:19;;;;;;;16.25;12.02;;;12.70;99.90;;;;;;5017994;28;20083;-69
2023/04/15 11:46:02;;;;;;;17.20;11.20;;;12.70;99.90;;;;;;5014719;28;20033;-69
2023/04/15 11:48:30;;;;;;;17.05;11.75;;;12.70;99.90;;;;;;5015697;28;20034;-68
2023/04/15 11:51:01;;;;;;;16.73;11.43;;;12.70;99.90;;;;;;5007424;28;20408;-69
2023/04/15 11:53:46;;;;;;;;;;;12.60;99.90;;;;;;5012942;28;20048;-71
2023/04/15 11:56:21;;;;;;;14.15;10.23;;;12.60;99.90;;;;;;5012847;28;20048;-69
2023/04/15 11:58:50;;;;;;;14.77;11.20;;;12.70;99.90;;;;;;5001711;28;20033;-69
2023/04/15 12:01:17;;;;;;;14.70;10.82;;;12.70;99.90;;;;;;5015236;28;20051;-69
2023/04/15 12:03:45;;;;;;;17.40;11.20;;;12.60;99.90;;;;;;5012182;28;20026;-68
2023/04/15 12:06:24;;;;;;;15.13;10.98;;;12.70;99.90;;;;;;5036567;28;20125;-69
2023/04/15 12:08:56;;;;;;;13.57;10.88;;;12.70;99.90;;;;;;5011615;28;20041;-67
2023/04/15 12:11:35;;;;;;;13.23;10.70;;;12.70;99.90;;;;;;5015749;28;20064;-67
2023/04/15 12:14:08;;;;;;;11.82;9.75;;;12.90;99.90;;;;;;5015524;28;20025;-68
2023/04/15 12:16:46;;;;;;;14.32;10.52;;;13.00;99.90;;;;;;5011694;28;20429;-70
2023/04/15 12:19:13;;;;;;;14.88;11.65;;;13.00;99.90;;;;;;5015264;28;20040;-70
2023/04/15 12:21:41;;;;;;;15.48;11.43;;;12.90;99.90;;;;;;5015545;28;20021;-68
2023/04/15 12:24:09;;;;;;;15.15;11.70;;;12.60;99.90;;;;;;5010131;28;20048;-70
2023/04/15 12:26:53;;;;;;;15.85;11.75;;;12.60;99.90;;;;;;5012989;28;20069;-69
2023/04/15 12:29:19;;;;;;;15.73;12.13;;;12.50;99.90;;;;;;5027196;28;20104;-70
2023/04/15 12:31:57;;;;;;;14.88;12.13;;;12.50;99.90;;;;;;5013955;28;20462;-70
2023/04/15 12:34:35;;;;;;;14.45;11.35;;;12.50;99.90;;;;;;5017542;28;20026;-68
2023/04/15 12:37:03;;;;;;;15.98;11.60;;;12.60;99.90;;;;;;5015061;28;20040;-69
2023/04/15 12:39:40;;;;;;;14.30;10.82;;;12.60;99.90;;;;;;5012035;28;20026;-69
2023/04/15 12:42:06;;;;;;;16.88;11.48;;;12.70;99.90;;;;;;5008996;28;20409;-70